Time;durP1;ratioP1;P1;durP2;ratioP2;P2;SDS_P1;SDS_P2;PMS_P1;PMS_P2;Temp;Humidity;BMP_temperature;BMP_pressure;BME280_temperature;BME280_humidity;BME280_pressure;Samples;Min_cycle;Max_cycle;Signal;HPM_P1;HPM_P2
2023/01/28 04:02:49;;;;;;;12.33;11.03;;;1.50;99.90;;;;;;5063180;23;20230;-80
2023/01/28 04:05:18;;;;;;;12.30;10.97;;;1.60;99.90;;;;;;5041236;28;20180;-79
2023/01/28 04:07:44;;;;;;;12.70;11.27;;;1.50;99.90;;;;;;5020285;28;20565;-79
2023/01/28 04:10:10;;;;;;;13.37;11.87;;;1.60;99.90;;;;;;5036320;28;20187;-79
2023/01/28 04:12:36;;;;;;;12.17;10.73;;;1.60;99.90;;;;;;5017895;28;20575;-79
2023/01/28 04:15:14;;;;;;;12.23;11.00;;;1.60;99.90;;;;;;5035557;28;20179;-79
2023/01/28 04:17:47;;;;;;;14.00;11.10;;;1.60;99.90;;;;;;5043153;23;20232;-77
2023/01/28 04:20:13;;;;;;;12.20;10.93;;;1.60;99.90;;;;;;5023803;28;20184;-78
2023/01/28 04:22:40;;;;;;;12.43;11.20;;;1.60;99.90;;;;;;5030829;28;20187;-78
2023/01/28 04:25:06;;;;;;;14.03;10.67;;;1.60;99.90;;;;;;5025548;28;20215;-77
2023/01/28 04:27:32;;;;;;;13.53;10.53;;;1.60;99.90;;;;;;5014478;28;20211;-77
2023/01/28 04:29:58;;;;;;;12.17;10.87;;;1.60;99.90;;;;;;5031506;28;20218;-76
2023/01/28 04:32:23;;;;;;;12.83;11.63;;;1.60;99.90;;;;;;5007426;28;20347;-79
2023/01/28 04:34:49;;;;;;;11.83;10.63;;;1.60;99.90;;;;;;5005795;28;20218;-78
2023/01/28 04:37:15;;;;;;;12.87;11.03;;;1.60;99.90;;;;;;5022980;28;20587;-78
2023/01/28 04:39:40;;;;;;;14.37;10.13;;;1.60;99.90;;;;;;5021399;28;20210;-77
2023/01/28 04:42:06;;;;;;;12.43;11.00;;;1.60;99.90;;;;;;5003862;28;20182;-78
2023/01/28 04:44:32;;;;;;;12.80;11.47;;;1.60;99.90;;;;;;5004703;28;20566;-79
2023/01/28 04:46:57;;;;;;;12.47;11.17;;;1.60;99.90;;;;;;5004750;28;20812;-79
2023/01/28 04:49:23;;;;;;;12.70;11.37;;;1.60;99.90;;;;;;5043660;28;20188;-78
2023/01/28 04:51:49;;;;;;;12.37;11.07;;;1.60;99.90;;;;;;5045701;28;20195;-78
2023/01/28 04:54:15;;;;;;;13.77;12.50;;;1.60;99.90;;;;;;5019479;28;20217;-77
2023/01/28 04:56:41;;;;;;;13.17;12.00;;;1.50;99.90;;;;;;5021971;28;20202;-79
2023/01/28 04:59:07;;;;;;;13.73;12.37;;;1.50;99.90;;;;;;5039103;28;20188;-78
2023/01/28 05:01:33;;;;;;;14.10;12.40;;;1.50;99.90;;;;;;5023175;28;20175;-78
2023/01/28 05:04:04;;;;;;;15.03;13.43;;;1.50;99.90;;;;;;5008620;28;20196;-79
2023/01/28 05:06:30;;;;;;;14.43;12.93;;;1.50;99.90;;;;;;5021664;28;20212;-77
2023/01/28 05:08:56;;;;;;;13.93;12.20;;;1.50;99.90;;;;;;5022299;28;20173;-79
2023/01/28 05:11:23;;;;;;;13.80;12.40;;;1.50;99.90;;;;;;5006049;28;20185;-79
2023/01/28 05:13:49;;;;;;;13.80;12.50;;;1.50;99.90;;;;;;5014243;28;20190;-78
2023/01/28 05:16:15;;;;;;;13.87;12.43;;;1.50;99.90;;;;;;5008255;28;20847;-78
2023/01/28 05:18:41;;;;;;;13.07;11.90;;;1.60;99.90;;;;;;5028099;28;20189;-78
2023/01/28 05:21:07;;;;;;;13.53;12.13;;;1.60;99.90;;;;;;5042506;28;20171;-78
2023/01/28 05:23:33;;;;;;;13.33;11.83;;;1.60;99.90;;;;;;5052300;28;20178;-76
2023/01/28 05:25:58;;;;;;;13.07;11.73;;;1.60;99.90;;;;;;5036291;28;20239;-77
2023/01/28 05:28:24;;;;;;;13.83;11.30;;;1.60;99.90;;;;;;5035539;28;20187;-76
2023/01/28 05:30:50;;;;;;;12.10;10.90;;;1.60;99.90;;;;;;5053166;28;20185;-77
2023/01/28 05:33:16;;;;;;;11.40;10.33;;;1.60;99.90;;;;;;5015534;28;20185;-78
2023/01/28 05:35:42;;;;;;;13.53;11.67;;;1.60;99.90;;;;;;5004260;28;20674;-78
2023/01/28 05:38:08;;;;;;;12.27;11.07;;;1.70;99.90;;;;;;5002194;28;20210;-78
2023/01/28 05:40:34;;;;;;;12.40;11.20;;;1.60;99.90;;;;;;5021105;28;20183;-78
2023/01/28 05:42:59;;;;;;;14.30;12.10;;;1.60;99.90;;;;;;5002408;28;20206;-79
2023/01/28 05:45:25;;;;;;;12.13;10.93;;;1.60;99.90;;;;;;5002766;28;20191;-78
2023/01/28 05:47:51;;;;;;;12.83;11.63;;;1.60;99.90;;;;;;5014750;28;20316;-79
2023/01/28 05:50:17;;;;;;;12.23;11.13;;;1.50;99.90;;;;;;5040755;28;20185;-78
2023/01/28 05:52:43;;;;;;;13.63;11.23;;;1.60;99.90;;;;;;5022132;28;20208;-78
2023/01/28 05:55:10;;;;;;;12.10;10.90;;;1.60;99.90;;;;;;5015283;28;20186;-77
2023/01/28 05:57:36;;;;;;;13.27;12.07;;;1.60;99.90;;;;;;5015338;28;20576;-77
2023/01/28 06:00:04;;;;;;;11.53;10.30;;;1.60;99.90;;;;;;5036368;28;20656;-77
2023/01/28 06:02:30;;;;;;;14.27;11.73;;;1.60;99.90;;;;;;5023497;28;20279;-78
2023/01/28 06:04:56;;;;;;;13.90;12.43;;;1.70;99.90;;;;;;5026564;28;20197;-77
2023/01/28 06:07:22;;;;;;;13.50;11.73;;;1.60;99.90;;;;;;5010752;28;20211;-77
2023/01/28 06:09:48;;;;;;;17.17;11.97;;;1.60;99.90;;;;;;5004516;28;20181;-78
2023/01/28 06:12:14;;;;;;;13.00;11.70;;;1.60;99.90;;;;;;5002546;28;20195;-78
2023/01/28 06:14:41;;;;;;;13.43;12.13;;;1.60;99.90;;;;;;5020898;28;20185;-78
2023/01/28 06:17:07;;;;;;;13.60;12.50;;;1.60;99.90;;;;;;5023195;28;20239;-78
2023/01/28 06:19:33;;;;;;;14.63;13.23;;;1.60;99.90;;;;;;5021300;28;20182;-78
2023/01/28 06:21:59;;;;;;;14.23;12.83;;;1.60;99.90;;;;;;5040313;28;20279;-77
2023/01/28 06:24:24;;;;;;;16.13;14.63;;;1.50;99.90;;;;;;5038789;28;20218;-78
2023/01/28 06:26:50;;;;;;;14.33;12.53;;;1.60;99.90;;;;;;5031779;28;20218;-71
2023/01/28 06:29:16;;;;;;;13.90;12.47;;;1.50;99.90;;;;;;5034302;28;20217;-71
2023/01/28 06:31:42;;;;;;;14.30;12.53;;;1.50;99.90;;;;;;5025499;28;20706;-71
2023/01/28 06:34:09;;;;;;;15.10;13.50;;;1.50;99.90;;;;;;5014819;28;20191;-72
2023/01/28 06:36:36;;;;;;;19.00;14.13;;;1.50;99.90;;;;;;5015548;28;20211;-71
2023/01/28 06:39:03;;;;;;;26.13;17.03;;;1.60;99.90;;;;;;5014855;28;20541;-72
2023/01/28 06:41:29;;;;;;;33.27;18.87;;;1.50;99.90;;;;;;5015112;28;20185;-71
2023/01/28 06:43:55;;;;;;;21.60;15.87;;;1.60;99.90;;;;;;4997683;28;20192;-72
2023/01/28 06:46:21;;;;;;;14.83;12.77;;;1.50;99.90;;;;;;5028310;28;20206;-72
2023/01/28 06:48:47;;;;;;;14.20;12.40;;;1.60;99.90;;;;;;5016436;28;20192;-71
2023/01/28 06:51:12;;;;;;;13.17;11.73;;;1.60;99.90;;;;;;5034254;28;20232;-72
2023/01/28 06:53:38;;;;;;;15.87;12.43;;;1.60;99.90;;;;;;5034235;28;20641;-72
2023/01/28 06:56:04;;;;;;;12.83;11.63;;;1.60;99.90;;;;;;5033771;28;20191;-72
2023/01/28 06:58:30;;;;;;;12.07;10.97;;;1.60;99.90;;;;;;5026071;28;20185;-71
2023/01/28 07:00:56;;;;;;;13.07;11.73;;;1.60;99.90;;;;;;5011876;28;20181;-71
2023/01/28 07:03:21;;;;;;;13.27;11.97;;;1.60;99.90;;;;;;5014012;28;20557;-71
2023/01/28 07:05:47;;;;;;;12.47;11.27;;;1.60;99.90;;;;;;5011949;28;20637;-71
2023/01/28 07:08:13;;;;;;;12.43;11.13;;;1.50;99.90;;;;;;5015467;28;20179;-71
2023/01/28 07:10:39;;;;;;;12.23;11.13;;;1.60;99.90;;;;;;5033871;28;20232;-71
2023/01/28 07:13:05;;;;;;;12.23;11.03;;;1.60;99.90;;;;;;5032303;28;20187;-71
2023/01/28 07:15:30;;;;;;;12.97;11.67;;;1.60;99.90;;;;;;5015957;28;20292;-70
2023/01/28 07:17:56;;;;;;;12.60;11.40;;;1.60;99.90;;;;;;5016802;28;20633;-71
2023/01/28 07:20:22;;;;;;;12.50;11.20;;;1.60;99.90;;;;;;5013456;28;20189;-71
2023/01/28 07:22:48;;;;;;;14.17;11.27;;;1.60;99.90;;;;;;5013692;28;20189;-71
2023/01/28 07:25:14;;;;;;;13.67;12.20;;;1.70;99.90;;;;;;5013432;28;20180;-71
2023/01/28 07:27:49;;;;;;;13.73;12.10;;;1.70;99.90;;;;;;5020538;28;20270;-71
2023/01/28 07:30:16;;;;;;;14.03;12.50;;;1.70;99.90;;;;;;5033200;28;20182;-71
2023/01/28 07:32:42;;;;;;;12.53;11.27;;;1.70;99.90;;;;;;5033698;28;20233;-70
2023/01/28 07:35:08;;;;;;;15.80;13.57;;;1.80;99.90;;;;;;5032754;28;20185;-70
2023/01/28 07:37:34;;;;;;;14.00;12.03;;;1.80;99.90;;;;;;5033300;28;20205;-71
2023/01/28 07:40:00;;;;;;;14.10;12.70;;;1.80;99.90;;;;;;5015205;28;20531;-70
2023/01/28 07:42:26;;;;;;;15.73;13.47;;;1.90;99.90;;;;;;5019414;28;20212;-71
2023/01/28 07:44:51;;;;;;;14.23;12.80;;;1.90;99.90;;;;;;5014178;28;20194;-71
2023/01/28 07:47:18;;;;;;;15.37;13.77;;;2.00;99.90;;;;;;5013528;28;20237;-68
2023/01/28 07:49:46;;;;;;;14.27;12.87;;;2.10;99.90;;;;;;5013113;28;20740;-67
2023/01/28 07:52:12;;;;;;;13.73;12.43;;;2.10;99.90;;;;;;4995946;28;20199;-72
2023/01/28 07:54:38;;;;;;;14.67;13.17;;;2.20;99.90;;;;;;5012275;28;20213;-74
2023/01/28 07:57:11;;;;;;;17.50;13.57;;;2.20;99.90;;;;;;5031321;28;20222;-71
2023/01/28 07:59:37;;;;;;;14.03;12.53;;;2.30;99.90;;;;;;5004400;28;20179;-72
2023/01/28 08:02:03;;;;;;;15.73;14.23;;;2.30;99.90;;;;;;5015640;28;20185;-72
2023/01/28 08:04:28;;;;;;;23.70;21.77;;;2.40;99.90;;;;;;5032809;28;20640;-72
2023/01/28 08:06:55;;;;;;;18.07;16.43;;;2.40;99.90;;;;;;5014908;28;20213;-73
2023/01/28 08:09:21;;;;;;;19.73;17.83;;;2.40;99.90;;;;;;5019067;28;20547;-72
2023/01/28 08:11:47;;;;;;;18.30;16.50;;;2.50;99.90;;;;;;5012835;28;20177;-72
2023/01/28 08:14:13;;;;;;;15.93;14.43;;;2.60;99.90;;;;;;5013165;28;20179;-75
2023/01/28 08:16:38;;;;;;;16.80;15.17;;;2.60;99.90;;;;;;5013187;28;20219;-73
2023/01/28 08:19:04;;;;;;;15.53;13.90;;;2.70;99.90;;;;;;4994508;28;20468;-73
2023/01/28 08:21:30;;;;;;;14.93;13.37;;;2.80;99.90;;;;;;5013458;28;20659;-72
2023/01/28 08:23:55;;;;;;;14.33;11.90;;;2.80;99.90;;;;;;5015914;28;20183;-72
2023/01/28 08:26:22;;;;;;;15.97;12.93;;;2.80;99.90;;;;;;4998659;28;20226;-73
2023/01/28 08:28:48;;;;;;;15.57;13.87;;;2.80;99.90;;;;;;5027742;28;20239;-72
2023/01/28 08:31:14;;;;;;;17.37;13.27;;;2.80;99.90;;;;;;5015466;28;20178;-72
2023/01/28 08:33:39;;;;;;;14.67;12.97;;;2.90;99.90;;;;;;5032985;28;20181;-72
2023/01/28 08:36:05;;;;;;;13.33;11.70;;;2.90;99.90;;;;;;5032576;28;20206;-72
2023/01/28 08:38:31;;;;;;;16.50;13.13;;;2.90;99.90;;;;;;5032468;28;20709;-72
2023/01/28 08:40:58;;;;;;;15.57;13.20;;;2.90;99.90;;;;;;5014854;28;20208;-73
2023/01/28 08:43:24;;;;;;;14.30;12.50;;;3.00;99.90;;;;;;5013067;28;20190;-74
2023/01/28 08:45:50;;;;;;;15.30;13.67;;;3.10;99.90;;;;;;4995425;28;20666;-72
2023/01/28 08:48:17;;;;;;;15.30;12.40;;;3.20;99.90;;;;;;4994900;28;20221;-74
2023/01/28 08:50:44;;;;;;;17.50;13.33;;;3.30;99.90;;;;;;5011823;28;20203;-74
2023/01/28 08:53:16;;;;;;;15.47;13.13;;;3.30;99.90;;;;;;5027436;28;20183;-73
2023/01/28 08:55:42;;;;;;;15.53;12.90;;;3.40;99.90;;;;;;5031479;28;20797;-70
2023/01/28 08:58:11;;;;;;;16.47;13.07;;;3.40;99.90;;;;;;5018214;28;20282;-72
2023/01/28 09:00:38;;;;;;;17.47;13.20;;;3.40;99.90;;;;;;4995594;28;20189;-71
2023/01/28 09:03:04;;;;;;;14.07;12.67;;;3.50;99.90;;;;;;5017881;28;20616;-72
2023/01/28 09:05:31;;;;;;;16.33;13.73;;;3.50;99.90;;;;;;5031751;28;20182;-72
2023/01/28 09:08:01;;;;;;;15.70;14.10;;;3.60;99.90;;;;;;5031239;28;20218;-71
2023/01/28 09:10:26;;;;;;;16.07;13.40;;;3.70;99.90;;;;;;5031156;28;20668;-71
2023/01/28 09:12:52;;;;;;;23.27;16.63;;;3.70;99.90;;;;;;5031438;28;20272;-72
2023/01/28 09:15:18;;;;;;;15.63;13.20;;;3.80;99.90;;;;;;5008177;28;20635;-71
2023/01/28 09:17:44;;;;;;;20.53;17.00;;;3.80;99.90;;;;;;5022644;28;20226;-70
2023/01/28 09:20:11;;;;;;;21.17;17.77;;;3.80;99.90;;;;;;5031478;28;20218;-74
2023/01/28 09:22:37;;;;;;;18.97;16.70;;;3.90;99.90;;;;;;5012730;28;20219;-75
2023/01/28 09:25:03;;;;;;;17.87;14.73;;;3.90;99.90;;;;;;5031354;28;20213;-77
2023/01/28 09:27:29;;;;;;;16.93;15.13;;;3.90;99.90;;;;;;5014759;28;20272;-72
2023/01/28 09:29:55;;;;;;;15.33;13.23;;;4.00;99.90;;;;;;5031835;28;20189;-74
2023/01/28 09:32:21;;;;;;;17.23;13.03;;;4.00;99.90;;;;;;5033135;28;20181;-77
2023/01/28 09:34:46;;;;;;;16.57;13.23;;;4.00;99.90;;;;;;5034033;28;20181;-76
2023/01/28 09:37:13;;;;;;;16.80;14.17;;;4.00;99.90;;;;;;5031504;28;20233;-76
2023/01/28 09:39:39;;;;;;;24.27;16.23;;;4.00;99.90;;;;;;4996047;28;20599;-74
2023/01/28 09:42:31;;;;;;;15.73;13.23;;;4.00;99.90;;;;;;4994114;28;20280;-74
2023/01/28 09:45:05;;;;;;;14.33;11.90;;;4.00;99.90;;;;;;5013254;28;20291;-75
2023/01/28 09:47:45;;;;;;;17.33;12.90;;;3.90;99.90;;;;;;4997054;28;20310;-75
2023/01/28 09:50:19;;;;;;;19.67;11.77;;;3.90;99.90;;;;;;4996299;28;20643;-74
2023/01/28 09:52:44;;;;;;;18.30;12.83;;;3.80;99.90;;;;;;5010396;28;20609;-74
2023/01/28 09:55:31;;;;;;;16.47;12.67;;;3.70;99.90;;;;;;5033461;28;20227;-75
2023/01/28 09:57:58;;;;;;;16.13;12.53;;;3.70;99.90;;;;;;5032877;28;20197;-75
2023/01/28 10:00:50;;;;;;;16.90;11.97;;;3.60;99.90;;;;;;5000327;28;20213;-67
2023/01/28 10:03:27;;;;;;;12.87;10.80;;;3.50;99.90;;;;;;5010871;28;20685;-67
2023/01/28 10:06:30;;;;;;;14.43;11.97;;;3.50;99.90;;;;;;4999230;28;20173;-71
2023/01/28 10:09:07;;;;;;;14.80;11.57;;;3.40;99.90;;;;;;5031485;28;20181;-72
2023/01/28 10:11:53;;;;;;;14.67;12.43;;;3.40;99.90;;;;;;5039534;28;20188;-73
2023/01/28 10:14:44;;;;;;;17.27;13.53;;;3.30;99.90;;;;;;5025248;28;20273;-70
2023/01/28 10:17:44;;;;;;;19.30;14.47;;;3.20;99.90;;;;;;5043334;23;20257;-73
2023/01/28 10:20:17;;;;;;;15.77;12.73;;;3.20;99.90;;;;;;5018885;28;20178;-72
2023/01/28 10:22:57;;;;;;;14.53;12.80;;;3.20;99.90;;;;;;5012776;28;20273;-73
2023/01/28 10:25:30;;;;;;;14.70;12.50;;;3.30;99.90;;;;;;5030580;28;20273;-72
2023/01/28 10:27:56;;;;;;;15.60;13.93;;;3.30;99.90;;;;;;5030065;28;20218;-73
2023/01/28 10:30:25;;;;;;;16.73;13.07;;;3.30;99.90;;;;;;5030619;28;20702;-72
2023/01/28 10:33:00;;;;;;;15.73;11.83;;;3.30;99.90;;;;;;5012927;28;20190;-72
2023/01/28 10:35:26;;;;;;;16.03;13.60;;;3.30;99.90;;;;;;5012107;28;20662;-72
2023/01/28 10:38:01;;;;;;;18.07;12.77;;;3.20;99.90;;;;;;4993078;28;20199;-72
2023/01/28 10:40:27;;;;;;;17.13;13.43;;;3.30;99.90;;;;;;4993784;28;20182;-74
2023/01/28 10:42:53;;;;;;;16.37;13.80;;;3.40;99.90;;;;;;5011382;28;20661;-74
2023/01/28 10:45:24;;;;;;;17.03;13.17;;;3.50;99.90;;;;;;5010437;28;20207;-74
2023/01/28 10:47:59;;;;;;;14.20;12.27;;;3.60;99.90;;;;;;5012843;28;20206;-72
2023/01/28 10:50:28;;;;;;;15.53;12.63;;;3.60;99.90;;;;;;5029771;28;20237;-72
2023/01/28 10:52:54;;;;;;;12.63;10.87;;;3.60;99.90;;;;;;5012253;28;20185;-73
2023/01/28 10:55:21;;;;;;;13.30;11.10;;;3.60;99.90;;;;;;5013083;28;20186;-73
2023/01/28 10:57:47;;;;;;;15.57;11.33;;;3.50;99.90;;;;;;5030619;28;20230;-73
2023/01/28 11:00:29;;;;;;;16.23;12.83;;;3.40;99.90;;;;;;5030915;28;20588;-73
2023/01/28 11:02:56;;;;;;;16.90;12.93;;;3.40;99.90;;;;;;5016322;28;20191;-73
2023/01/28 11:05:29;;;;;;;18.43;13.93;;;3.40;99.90;;;;;;4993072;28;20266;-73
2023/01/28 11:08:15;;;;;;;14.63;12.70;;;3.50;99.90;;;;;;4992794;28;20646;-73
2023/01/28 11:10:42;;;;;;;23.13;14.93;;;3.50;99.90;;;;;;5010610;28;20187;-74
2023/01/28 11:13:23;;;;;;;13.40;11.40;;;3.50;99.90;;;;;;5010784;28;20183;-74
2023/01/28 11:15:56;;;;;;;18.13;14.27;;;3.50;99.90;;;;;;5014139;28;20219;-74
2023/01/28 11:18:27;;;;;;;17.13;13.60;;;3.40;99.90;;;;;;5013691;28;20256;-73
2023/01/28 11:21:02;;;;;;;15.30;13.70;;;3.40;99.90;;;;;;5014394;28;20589;-74
2023/01/28 11:23:38;;;;;;;13.80;12.30;;;3.30;99.90;;;;;;5014262;28;20229;-73
2023/01/28 11:26:21;;;;;;;17.13;13.27;;;3.30;99.90;;;;;;4996704;28;20216;-73
2023/01/28 11:28:48;;;;;;;16.20;13.47;;;3.20;99.90;;;;;;4996598;28;20189;-72
2023/01/28 11:31:16;;;;;;;15.50;13.20;;;3.20;99.90;;;;;;5029959;28;20181;-72
2023/01/28 11:33:48;;;;;;;19.70;17.80;;;3.20;99.90;;;;;;5034033;28;20174;-72
2023/01/28 11:36:17;;;;;;;14.77;12.63;;;3.30;99.90;;;;;;5016417;28;20690;-73
2023/01/28 11:38:56;;;;;;;16.50;14.20;;;3.30;99.90;;;;;;5015932;28;20182;-73
2023/01/28 11:41:28;;;;;;;16.07;13.50;;;3.40;99.90;;;;;;5033999;28;20186;-74
2023/01/28 11:43:54;;;;;;;18.40;13.13;;;3.40;99.90;;;;;;5028402;28;20197;-73
2023/01/28 11:46:43;;;;;;;17.03;14.03;;;3.40;99.90;;;;;;5013613;28;20265;-73
2023/01/28 11:49:35;;;;;;;17.37;13.20;;;3.50;99.90;;;;;;4996197;28;20750;-73
2023/01/28 11:52:26;;;;;;;17.03;13.93;;;3.50;99.90;;;;;;5015319;28;20187;-73
2023/01/28 11:55:14;;;;;;;20.47;18.37;;;3.50;99.90;;;;;;5017755;28;20179;-73
2023/01/28 11:57:52;;;;;;;16.43;13.07;;;3.60;99.90;;;;;;5013177;28;20210;-73
2023/01/28 12:00:33;;;;;;;18.70;13.67;;;3.50;99.90;;;;;;5013547;28;20201;-73
2023/01/28 12:03:18;;;;;;;16.03;13.33;;;3.40;99.90;;;;;;4995927;28;20626;-73
2023/01/28 12:05:51;;;;;;;16.47;13.80;;;3.40;99.90;;;;;;5013595;28;20186;-74
2023/01/28 12:08:36;;;;;;;15.77;13.70;;;3.50;99.90;;;;;;5012801;28;20722;-74
2023/01/28 12:11:20;;;;;;;20.80;13.60;;;3.50;99.90;;;;;;5014297;28;20661;-74
2023/01/28 12:14:09;;;;;;;15.10;12.57;;;3.60;99.90;;;;;;5033077;28;20572;-74
2023/01/28 12:16:55;;;;;;;19.33;13.93;;;3.50;99.90;;;;;;5032913;28;20237;-73
2023/01/28 12:19:35;;;;;;;21.10;14.13;;;3.50;99.90;;;;;;5015270;28;20186;-74
2023/01/28 12:22:30;;;;;;;17.97;13.97;;;3.40;99.90;;;;;;5016288;28;20182;-74
2023/01/28 12:25:25;;;;;;;17.20;13.43;;;3.40;99.90;;;;;;5001964;28;20209;-74
2023/01/28 12:28:29;;;;;;;20.40;14.77;;;3.30;99.90;;;;;;5013149;28;20613;-74
2023/01/28 12:31:26;;;;;;;18.93;14.73;;;3.30;99.90;;;;;;5014545;28;20252;-74
2023/01/28 12:34:13;;;;;;;17.00;14.67;;;3.40;99.90;;;;;;4996667;28;20189;-74
2023/01/28 12:37:05;;;;;;;13.67;10.97;;;3.40;99.90;;;;;;4995911;28;20668;-74
2023/01/28 12:40:04;;;;;;;17.70;13.37;;;3.40;99.90;;;;;;5012551;28;20610;-74
2023/01/28 12:42:51;;;;;;;19.57;15.27;;;3.30;99.90;;;;;;5012864;28;20218;-74
2023/01/28 12:45:19;;;;;;;18.60;14.83;;;3.40;99.90;;;;;;4995312;28;20183;-74
2023/01/28 12:48:08;;;;;;;22.17;15.40;;;3.50;99.90;;;;;;5012151;28;20238;-74
2023/01/28 12:50:44;;;;;;;19.57;15.50;;;3.50;99.90;;;;;;5012688;28;20550;-74
2023/01/28 12:53:18;;;;;;;15.97;13.27;;;3.60;99.90;;;;;;5012841;28;20655;-74
2023/01/28 12:56:01;;;;;;;15.50;12.70;;;3.60;99.90;;;;;;5011116;28;20224;-74
2023/01/28 12:58:46;;;;;;;17.93;13.70;;;3.50;99.90;;;;;;5032006;28;20560;-73
2023/01/28 13:01:18;;;;;;;19.33;14.60;;;3.50;99.90;;;;;;5032445;28;20190;-74
2023/01/28 13:04:05;;;;;;;18.97;14.77;;;3.50;99.90;;;;;;5032273;28;20191;-74
2023/01/28 13:06:33;;;;;;;17.33;13.07;;;3.60;99.90;;;;;;5014264;28;20702;-74
2023/01/28 13:09:09;;;;;;;17.97;15.03;;;3.70;99.90;;;;;;5004330;28;20248;-74
2023/01/28 13:11:36;;;;;;;17.13;14.43;;;3.80;99.90;;;;;;4994952;28;20176;-74
2023/01/28 13:14:04;;;;;;;15.83;14.13;;;3.90;99.90;;;;;;4995020;28;20176;-74
2023/01/28 13:16:30;;;;;;;15.17;13.57;;;3.80;99.90;;;;;;5012166;28;20284;-75
2023/01/28 13:19:05;;;;;;;16.97;13.70;;;3.60;99.90;;;;;;5001152;28;20179;-73
2023/01/28 13:21:34;;;;;;;13.23;11.87;;;3.60;99.90;;;;;;5032012;28;20190;-74
2023/01/28 13:24:08;;;;;;;15.67;11.00;;;3.50;99.90;;;;;;4998372;28;20251;-74
2023/01/28 13:26:45;;;;;;;13.37;11.77;;;3.50;99.90;;;;;;4994302;28;20757;-74
2023/01/28 13:29:14;;;;;;;14.07;11.80;;;3.40;99.90;;;;;;4994978;28;20596;-75
2023/01/28 13:31:45;;;;;;;13.67;12.27;;;3.30;99.90;;;;;;5012266;28;20293;-73
2023/01/28 13:34:32;;;;;;;13.97;11.90;;;3.20;99.90;;;;;;5012415;28;20269;-73
2023/01/28 13:37:27;;;;;;;13.83;10.97;;;3.10;99.90;;;;;;5011160;28;20205;-74
2023/01/28 13:40:22;;;;;;;12.67;10.83;;;3.10;99.90;;;;;;5012178;28;20275;-73
2023/01/28 13:43:00;;;;;;;13.73;11.87;;;3.10;99.90;;;;;;5011594;28;20236;-74
2023/01/28 13:45:26;;;;;;;12.93;11.73;;;3.20;99.90;;;;;;4994385;28;20277;-73
2023/01/28 13:48:19;;;;;;;13.47;12.07;;;3.20;99.90;;;;;;4993979;28;20248;-73
2023/01/28 13:50:46;;;;;;;13.43;11.57;;;3.30;99.90;;;;;;4984157;28;20195;-73
2023/01/28 13:53:26;;;;;;;12.20;10.63;;;3.30;99.90;;;;;;5011846;28;20186;-75
2023/01/28 13:55:56;;;;;;;12.03;10.40;;;3.40;99.90;;;;;;5011931;28;20218;-74
2023/01/28 13:58:34;;;;;;;11.73;10.53;;;3.50;99.90;;;;;;5011320;28;20187;-74
2023/01/28 14:01:32;;;;;;;12.03;10.83;;;3.40;99.90;;;;;;5011679;28;20248;-74
2023/01/28 14:04:00;;;;;;;12.77;10.40;;;3.40;99.90;;;;;;5011853;28;20214;-74
2023/01/28 14:07:00;;;;;;;10.90;9.93;;;3.50;99.90;;;;;;5028370;28;20263;-74
2023/01/28 14:09:47;;;;;;;12.00;10.83;;;3.60;99.90;;;;;;5013673;28;20184;-74
2023/01/28 14:12:52;;;;;;;10.90;9.90;;;3.70;99.90;;;;;;5013642;28;20186;-74
2023/01/28 14:15:33;;;;;;;11.30;9.63;;;3.60;99.90;;;;;;5005382;28;20633;-75
2023/01/28 14:17:59;;;;;;;11.53;10.20;;;3.70;99.90;;;;;;5030574;28;20214;-74
2023/01/28 14:20:31;;;;;;;13.40;12.20;;;3.80;99.90;;;;;;5013229;28;20700;-73
2023/01/28 14:23:02;;;;;;;13.30;10.83;;;3.90;99.90;;;;;;5011687;28;20187;-74
2023/01/28 14:26:09;;;;;;;11.80;10.50;;;3.90;99.90;;;;;;4994154;28;20187;-74
2023/01/28 14:29:11;;;;;;;10.30;9.30;;;3.80;99.90;;;;;;4993623;28;20202;-74
2023/01/28 14:31:38;;;;;;;13.80;10.17;;;3.70;99.90;;;;;;5011478;28;20190;-74
2023/01/28 14:34:26;;;;;;;10.07;9.10;;;3.80;99.90;;;;;;5011775;28;20183;-74
2023/01/28 14:37:17;;;;;;;10.00;9.00;;;3.90;99.90;;;;;;4993475;28;20215;-74
2023/01/28 14:40:07;;;;;;;10.03;9.10;;;3.90;99.90;;;;;;4993401;28;20627;-73
2023/01/28 14:42:39;;;;;;;13.97;11.43;;;3.80;99.90;;;;;;4993647;28;20197;-74
2023/01/28 14:45:29;;;;;;;11.13;10.17;;;3.60;99.90;;;;;;4993759;28;20572;-75
2023/01/28 14:48:35;;;;;;;10.00;9.10;;;3.50;99.90;;;;;;4992886;28;20223;-72
2023/01/28 14:51:17;;;;;;;10.87;9.87;;;3.40;99.90;;;;;;4997518;28;20565;-74
2023/01/28 14:54:11;;;;;;;10.97;9.90;;;3.30;99.90;;;;;;5015033;28;20185;-74
2023/01/28 14:56:54;;;;;;;9.60;8.80;;;3.30;99.90;;;;;;5014956;28;20203;-74
2023/01/28 14:59:31;;;;;;;11.17;10.27;;;3.30;99.90;;;;;;5015543;28;20197;-74
2023/01/28 15:02:00;;;;;;;10.00;9.10;;;3.20;99.90;;;;;;5028343;28;20225;-74
2023/01/28 15:04:34;;;;;;;11.10;9.80;;;3.20;99.90;;;;;;5034962;28;20181;-73
2023/01/28 15:07:21;;;;;;;10.20;9.37;;;3.30;99.90;;;;;;5016489;28;20320;-74
2023/01/28 15:10:05;;;;;;;10.37;9.27;;;3.30;99.90;;;;;;5034605;28;20650;-74
2023/01/28 15:12:37;;;;;;;10.87;9.93;;;3.30;99.90;;;;;;5017042;28;20185;-73
2023/01/28 15:15:39;;;;;;;9.80;9.00;;;3.30;99.90;;;;;;5028756;28;20186;-74
2023/01/28 15:18:14;;;;;;;10.63;9.60;;;3.40;99.90;;;;;;4918103;29;20232;-74
2023/01/28 15:20:44;;;;;;;10.03;9.13;;;3.30;99.90;;;;;;5003560;28;20285;-73
2023/01/28 15:23:14;;;;;;;10.93;9.87;;;3.30;99.90;;;;;;4996655;28;20545;-73
2023/01/28 15:25:40;;;;;;;10.73;9.73;;;3.30;99.90;;;;;;5014500;28;20187;-73
2023/01/28 15:28:16;;;;;;;10.53;9.50;;;3.30;99.90;;;;;;4995935;28;20214;-73
2023/01/28 15:30:45;;;;;;;10.60;9.70;;;3.30;99.90;;;;;;5012790;28;20501;-74
2023/01/28 15:33:18;;;;;;;10.53;9.53;;;3.30;99.90;;;;;;5015626;28;20553;-74
2023/01/28 15:35:52;;;;;;;9.97;9.17;;;3.30;99.90;;;;;;5012739;28;20646;-74
2023/01/28 15:38:18;;;;;;;10.40;9.53;;;3.20;99.90;;;;;;5013131;28;20214;-74
2023/01/28 15:40:50;;;;;;;10.53;9.63;;;3.10;99.90;;;;;;4995855;28;20185;-74
2023/01/28 15:43:19;;;;;;;11.23;10.13;;;3.10;99.90;;;;;;5013903;28;20187;-74
2023/01/28 15:45:49;;;;;;;10.73;9.83;;;3.10;99.90;;;;;;5013825;28;20175;-73
2023/01/28 15:48:16;;;;;;;11.00;10.10;;;3.10;99.90;;;;;;5012966;28;20229;-73
2023/01/28 15:50:45;;;;;;;10.73;9.73;;;3.10;99.90;;;;;;4996087;28;20214;-73
2023/01/28 15:53:15;;;;;;;10.63;9.73;;;3.00;99.90;;;;;;5013511;28;20207;-72
2023/01/28 15:55:44;;;;;;;10.47;9.67;;;2.90;99.90;;;;;;4995821;28;20182;-73
2023/01/28 15:58:24;;;;;;;10.47;9.50;;;2.90;99.90;;;;;;5026447;28;20201;-76
2023/01/28 16:01:00;;;;;;;10.40;9.40;;;2.90;99.90;;;;;;5034425;28;20241;-77
2023/01/28 16:03:26;;;;;;;8.67;7.87;;;2.90;99.90;;;;;;5033963;28;20256;-74
2023/01/28 16:06:12;;;;;;;10.40;9.60;;;2.90;99.90;;;;;;5016150;28;20181;-74
2023/01/28 16:08:40;;;;;;;11.50;9.57;;;2.80;99.90;;;;;;5014933;28;20317;-75
2023/01/28 16:11:08;;;;;;;8.93;8.13;;;2.80;99.90;;;;;;5028628;28;20175;-75
2023/01/28 16:13:34;;;;;;;9.50;8.63;;;2.80;99.90;;;;;;5013136;28;20183;-74
2023/01/28 16:16:02;;;;;;;9.43;8.73;;;2.80;99.90;;;;;;4995203;28;20258;-74
2023/01/28 16:18:50;;;;;;;10.27;9.17;;;2.70;99.90;;;;;;4995094;28;20240;-74
2023/01/28 16:21:29;;;;;;;10.60;9.53;;;2.70;99.90;;;;;;4995522;28;20190;-74
2023/01/28 16:24:01;;;;;;;9.83;8.93;;;2.70;99.90;;;;;;4995257;28;20180;-74
2023/01/28 16:26:30;;;;;;;10.17;9.20;;;2.70;99.90;;;;;;4995009;28;20803;-74
2023/01/28 16:28:55;;;;;;;10.30;9.50;;;2.70;99.90;;;;;;5012631;28;20273;-74
2023/01/28 16:31:21;;;;;;;10.17;9.27;;;2.70;99.90;;;;;;5013004;28;20210;-75
2023/01/28 16:33:47;;;;;;;10.63;9.60;;;2.70;99.90;;;;;;4995754;28;20182;-75
2023/01/28 16:36:15;;;;;;;9.43;8.33;;;2.70;99.90;;;;;;5012869;28;20180;-74
2023/01/28 16:38:41;;;;;;;10.73;9.83;;;2.70;99.90;;;;;;5012887;28;20178;-73
2023/01/28 16:41:25;;;;;;;10.40;9.50;;;2.80;99.90;;;;;;5014835;28;20579;-74
2023/01/28 16:43:51;;;;;;;9.87;9.03;;;2.70;99.90;;;;;;5015001;28;20231;-74
2023/01/28 16:46:17;;;;;;;11.17;10.07;;;2.70;99.90;;;;;;5032374;28;20988;-74
2023/01/28 16:48:43;;;;;;;10.67;9.73;;;2.70;99.90;;;;;;5032060;28;20218;-74
2023/01/28 16:51:17;;;;;;;10.60;9.60;;;2.80;99.90;;;;;;5032405;28;20182;-74
2023/01/28 16:53:47;;;;;;;9.67;8.87;;;2.80;99.90;;;;;;5023434;28;20177;-74
2023/01/28 16:56:22;;;;;;;10.57;9.57;;;2.80;99.90;;;;;;5025061;28;20179;-74
2023/01/28 16:58:48;;;;;;;10.50;9.50;;;2.70;99.90;;;;;;5031577;28;20236;-74
2023/01/28 17:01:13;;;;;;;10.33;9.47;;;2.70;99.90;;;;;;5032040;28;20182;-73
2023/01/28 17:03:39;;;;;;;10.47;9.57;;;2.60;99.90;;;;;;5031848;28;20247;-74
2023/01/28 17:06:06;;;;;;;10.17;9.17;;;2.60;99.90;;;;;;5014379;28;20205;-74